Cloquet, MN

10:54 AM CDT on April 26, 2017 (GMT -0500)
Cloquet Carlton County

Weather History for KCOQ - December, 2012

Change the Weather History Date:

Sunday, December 16, 2012

  Actual Average Record
Temperature  
Mean Temperature 26 °F -  
Max Temperature 33 °F 22 °F 42 °F (1997)
Min Temperature 19 °F 9 °F -23 °F (2008)
Degree Days  
Heating Degree Days 39    
Moisture  
Dew Point 22 °F    
Average Humidity 88    
Maximum Humidity 93    
Minimum Humidity 80    
Precipitation  
Precipitation 0.01 in - - ()
Sea Level Pressure  
Sea Level Pressure 29.63 in    
Wind  
Wind Speed 9 mph (WNW)    
Max Wind Speed 16 mph    
Max Gust Speed 22 mph    
Visibility 7 miles    
Events Snow    
Averages and records for this station are not official NWS values.
T = Trace of Precipitation, MM = Missing Value Source: NWS Daily Summary

Daily Weather History Graph

Daily Weather History Graph

Search for Another Location

Airport or City:

Trip Planner

Search our weather history database for the weather conditions in past years. The results will help you decide how hot, cold, wet, or windy it might be!

Date:

Astronomy

Dec. 16, 2012 Rise Set
Actual Time 7:49 AM CST 4:22 PM CST
Civil Twilight 7:13 AM CST 4:58 PM CST
Nautical Twilight 6:35 AM CST 5:36 PM CST
Astronomical Twilight 5:58 AM CST 6:13 PM CST
Moon 10:11 AM CST (12/16) 8:50 PM CST (12/16)
Length of Visible Light 9h 44m
Length of Day
8h 33m
Waxing Crescent, 16% of the Moon is Illuminated
Dec 16
Waxing Crescent
Dec 19
First Quarter
Dec 28
Full
Jan 4
Last Quarter
Jan 11
New

Hourly Weather History & Observations

Time (CST) Temp. Windchill Dew Point Humidity Pressure Visibility Wind Dir Wind Speed Gust Speed Precip Events Conditions
12:16 AM 33.8 °F 30.8 °F 30.2 °F 87% 29.51 in 2.0 mi NW 3.5 mph - N/A Snow Light Snow
12:56 AM 33.8 °F 30.8 °F 30.2 °F 87% 29.51 in 1.8 mi NW 3.5 mph - N/A Snow Light Snow
1:16 AM 33.8 °F 29.6 °F 30.2 °F 87% 29.51 in 2.5 mi NW 4.6 mph - 0.01 in Snow Light Snow
1:36 AM 33.8 °F 29.6 °F 30.2 °F 87% 29.52 in 3.0 mi WNW 4.6 mph - 0.01 in Snow Light Snow
2:16 AM 33.8 °F 28.6 °F 30.2 °F 87% 29.52 in 4.0 mi NW 5.8 mph - N/A Snow Light Snow
2:56 AM 33.8 °F 27.7 °F 30.2 °F 87% 29.53 in 4.0 mi WNW 6.9 mph - N/A Snow Light Snow
3:16 AM 33.8 °F 27.0 °F 30.2 °F 87% 29.53 in 5.0 mi WNW 8.1 mph - N/A Snow Light Snow
3:36 AM 33.8 °F 25.8 °F 30.2 °F 87% 29.54 in 7.0 mi NW 10.4 mph - N/A   Overcast
3:56 AM 33.8 °F 25.8 °F 30.2 °F 87% 29.54 in 10.0 mi NW 10.4 mph 18.4 mph N/A   Overcast
4:16 AM 33.8 °F 26.4 °F 30.2 °F 87% 29.54 in 10.0 mi NW 9.2 mph - N/A   Overcast
4:36 AM 33.8 °F 25.8 °F 30.2 °F 87% 29.54 in 10.0 mi NW 10.4 mph - N/A   Overcast
4:56 AM 33.8 °F 24.3 °F 30.2 °F 87% 29.55 in 10.0 mi NW 13.8 mph - N/A   Overcast
5:16 AM 33.8 °F 24.8 °F 30.2 °F 87% 29.55 in 10.0 mi NW 12.7 mph - N/A   Overcast
5:36 AM 33.8 °F 24.8 °F 30.2 °F 87% 29.55 in 10.0 mi NW 12.7 mph 19.6 mph N/A   Overcast
5:56 AM 33.8 °F 25.3 °F 30.2 °F 87% 29.56 in 10.0 mi NW 11.5 mph 16.1 mph N/A   Overcast
6:16 AM 33.8 °F 25.8 °F 30.2 °F 87% 29.57 in 10.0 mi NW 10.4 mph - N/A   Overcast
6:36 AM 33.8 °F 25.8 °F 30.2 °F 87% 29.57 in 10.0 mi NW 10.4 mph - N/A   Overcast
7:15 AM 33.8 °F 26.4 °F 30.2 °F 87% 29.58 in 5.0 mi NW 9.2 mph 17.3 mph N/A   Overcast
7:36 AM 33.8 °F 25.3 °F 30.2 °F 87% 29.58 in 4.0 mi WNW 11.5 mph - N/A   Overcast
7:56 AM 32.0 °F 23.0 °F 28.4 °F 87% 29.58 in 3.0 mi WNW 11.5 mph - N/A   Overcast
8:16 AM 30.2 °F 19.3 °F 26.6 °F 86% 29.59 in 4.0 mi WNW 15.0 mph 21.9 mph N/A   Overcast
8:36 AM 28.4 °F 18.0 °F 26.6 °F 93% 29.60 in 4.0 mi WNW 12.7 mph - N/A   Overcast
8:56 AM 26.6 °F 14.7 °F 24.8 °F 93% 29.61 in 2.0 mi West 15.0 mph 20.7 mph N/A   Overcast
9:16 AM 26.6 °F 15.7 °F 24.8 °F 93% 29.62 in 2.5 mi WNW 12.7 mph 20.7 mph N/A   Overcast
9:36 AM 26.6 °F 15.2 °F 23.0 °F 86% 29.63 in 3.0 mi NW 13.8 mph - N/A   Overcast
9:56 AM 24.8 °F 12.9 °F 21.2 °F 86% 29.63 in 2.5 mi WNW 13.8 mph 19.6 mph N/A   Overcast
10:16 AM 24.8 °F 12.9 °F 21.2 °F 86% 29.64 in 2.5 mi WNW 13.8 mph 19.6 mph N/A   Overcast
10:36 AM 24.8 °F 12.4 °F 19.4 °F 80% 29.64 in 3.0 mi WNW 15.0 mph - N/A   Overcast
10:55 AM 24.8 °F 12.9 °F 19.4 °F 80% 29.65 in 3.0 mi WNW 13.8 mph 19.6 mph N/A   Overcast
11:16 AM 23.0 °F 9.6 °F 19.4 °F 86% 29.65 in 3.0 mi WNW 16.1 mph 19.6 mph N/A   Overcast
11:36 AM 23.0 °F 10.6 °F 19.4 °F 86% 29.64 in 4.0 mi WNW 13.8 mph 18.4 mph N/A   Overcast
11:55 AM 21.2 °F 9.5 °F 19.4 °F 93% 29.65 in 4.0 mi WNW 11.5 mph - N/A   Overcast
12:16 PM 21.2 °F 9.5 °F 19.4 °F 93% 29.65 in 4.0 mi WNW 11.5 mph - N/A   Overcast
12:36 PM 21.2 °F 8.9 °F 19.4 °F 93% 29.65 in 4.0 mi WNW 12.7 mph - N/A   Overcast
12:56 PM 21.2 °F 8.3 °F 19.4 °F 93% 29.65 in 5.0 mi WNW 13.8 mph - N/A   Overcast
1:16 PM 21.2 °F 8.9 °F 17.6 °F 86% 29.65 in 7.0 mi WNW 12.7 mph 18.4 mph N/A   Overcast
1:36 PM 21.2 °F 10.9 °F 17.6 °F 86% 29.65 in 10.0 mi NW 9.2 mph 12.7 mph N/A   Overcast
1:56 PM 21.2 °F 9.5 °F 17.6 °F 86% 29.65 in 7.0 mi WNW 11.5 mph 16.1 mph N/A   Overcast
2:16 PM 21.2 °F 8.3 °F 17.6 °F 86% 29.65 in 10.0 mi WNW 13.8 mph - N/A   Overcast
2:36 PM 21.2 °F 10.9 °F 17.6 °F 86% 29.65 in 10.0 mi WNW 9.2 mph - N/A   Overcast
2:56 PM 21.2 °F 10.1 °F 17.6 °F 86% 29.65 in 10.0 mi WNW 10.4 mph - N/A   Overcast
3:16 PM 21.2 °F 10.1 °F 17.6 °F 86% 29.66 in 10.0 mi WNW 10.4 mph - N/A   Overcast
3:36 PM 19.4 °F 7.9 °F 15.8 °F 86% 29.67 in 10.0 mi WNW 10.4 mph - N/A   Overcast
4:16 PM 19.4 °F 7.2 °F 15.8 °F 86% 29.68 in 10.0 mi WNW 11.5 mph - N/A   Overcast
4:36 PM 19.4 °F 7.9 °F 15.8 °F 86% 29.68 in 10.0 mi WNW 10.4 mph - N/A   Overcast
4:56 PM 19.4 °F 7.9 °F 17.6 °F 93% 29.69 in 10.0 mi WNW 10.4 mph - N/A   Overcast
5:16 PM 19.4 °F 9.5 °F 17.6 °F 93% 29.69 in 10.0 mi WNW 8.1 mph - N/A   Overcast
5:36 PM 19.4 °F 9.5 °F 17.6 °F 93% 29.70 in 10.0 mi WNW 8.1 mph - N/A   Overcast
5:56 PM 19.4 °F 10.4 °F 17.6 °F 93% 29.70 in 10.0 mi WNW 6.9 mph - N/A   Overcast
6:16 PM 19.4 °F 7.2 °F 17.6 °F 93% 29.71 in 7.0 mi WNW 11.5 mph 17.3 mph N/A   Overcast
6:36 PM 19.4 °F 7.2 °F 17.6 °F 93% 29.71 in 10.0 mi NW 11.5 mph 17.3 mph N/A   Overcast
6:56 PM 19.4 °F 6.6 °F 17.6 °F 93% 29.71 in 10.0 mi NW 12.7 mph - N/A   Overcast
7:16 PM 19.4 °F 9.5 °F 17.6 °F 93% 29.72 in 10.0 mi NW 8.1 mph - N/A   Overcast
7:36 PM 19.4 °F 11.5 °F 17.6 °F 93% 29.71 in 10.0 mi WNW 5.8 mph - N/A   Overcast
7:56 PM 19.4 °F 7.9 °F 17.6 °F 93% 29.72 in 10.0 mi NW 10.4 mph - N/A   Overcast
8:16 PM 19.4 °F 10.4 °F 17.6 °F 93% 29.72 in 10.0 mi WNW 6.9 mph - N/A   Overcast
8:36 PM 19.4 °F 8.6 °F 17.6 °F 93% 29.71 in 10.0 mi WNW 9.2 mph 16.1 mph N/A   Overcast
8:56 PM 19.4 °F 7.2 °F 17.6 °F 93% 29.71 in 10.0 mi WNW 11.5 mph - N/A   Overcast
9:15 PM 19.4 °F 8.6 °F 15.8 °F 86% 29.71 in 10.0 mi WNW 9.2 mph - N/A   Overcast
9:36 PM 19.4 °F 8.6 °F 15.8 °F 86% 29.71 in 10.0 mi WNW 9.2 mph - N/A   Overcast
9:56 PM 19.4 °F 9.5 °F 15.8 °F 86% 29.71 in 10.0 mi WNW 8.1 mph - N/A   Overcast
10:16 PM 19.4 °F 9.5 °F 15.8 °F 86% 29.71 in 10.0 mi WNW 8.1 mph - N/A   Overcast
10:34 PM 19.4 °F 8.6 °F 15.8 °F 86% 29.72 in 10.0 mi WNW 9.2 mph - N/A   Overcast
10:56 PM 19.4 °F 10.4 °F 15.8 °F 86% 29.72 in - WNW 6.9 mph - N/A   Overcast
11:15 PM - - - N/A% - 10.0 mi West 4.6 mph - N/A   Overcast
11:36 PM 19.4 °F - 15.8 °F 86% 29.72 in 10.0 mi Calm Calm - N/A   Overcast
11:56 PM - - - N/A% - 10.0 mi West 8.1 mph - N/A   Overcast